Flight Track Log - Related Links

Times and Time Zones

All times are in EDT time to prevent confusion due to time zone crossing. See the EJA122 flight status page for this flight to view local times or setup timezone preferences in your user account.

Time Position Orientation Groundspeed Altitude Reporting Facility
EDT Latitude Longitude Course Direction KTS MPH feet Rate Location/Type
Mon 02:09:13 PM 45.4972 -84.8247 212° Southwest 228 262 4,800  Level Minneapolis Center
Mon 02:10:15 PM 45.4297 -84.8856 212° Southwest 240 276 8,400 3,048 Climbing Minneapolis Center
Mon 02:11:17 PM 45.3536 -84.8722 173° South 268 308 11,100 2,516 Climbing Minneapolis Center
Mon 02:12:19 PM 45.2722 -84.8544 171° South 281 323 13,600 2,419 Climbing Minneapolis Center
Mon 02:13:21 PM 45.1772 -84.8389 173° South 301 346 16,100 2,081 Climbing Minneapolis Center
Mon 02:14:23 PM 45.0900 -84.8250 174° South 314 361 17,900 1,839 Climbing Minneapolis Center
Mon 02:15:25 PM 44.9983 -84.8106 174° South 313 360 19,900 1,694 Climbing Minneapolis Center
Mon 02:16:27 PM 44.9042 -84.7914 172° South 324 373 21,400 1,452 Climbing Minneapolis Center
Mon 02:17:29 PM 44.8100 -84.7736 172° South 335 386 22,900 1,476 Climbing Minneapolis Center
Mon 02:18:33 PM 44.7128 -84.7542 172° South 346 398 24,500 1,476 Climbing Minneapolis Center
Mon 02:19:35 PM 44.6189 -84.7039 159° South 358 412 26,000 1,403 Climbing Minneapolis Center
Mon 02:20:37 PM 44.5244 -84.6575 161° South 359 413 27,400 1,161 Climbing Minneapolis Center
Mon 02:21:39 PM 44.4269 -84.6089 160° South 366 421 28,400 1,113 Climbing Minneapolis Center
Mon 02:22:41 PM 44.3061 -84.5475 160° South 382 440 29,700 1,113 Climbing Minneapolis Center
Mon 02:23:43 PM 44.2042 -84.4964 160° South 386 444 30,700 968 Climbing Minneapolis Center
Mon 02:24:45 PM 44.0994 -84.4442 160° South 395 455 31,700 1,016 Climbing Minneapolis Center
Mon 02:25:47 PM 43.9947 -84.3922 160° South 399 459 32,800 1,008 Climbing Minneapolis Center
Mon 02:26:50 PM 43.8825 -84.3369 160° South 402 463 33,800 864 Climbing Minneapolis Center
Mon 02:27:52 PM 43.7758 -84.2833 160° South 405 466 34,600 774 Climbing Minneapolis Center
Mon 02:28:54 PM 43.6664 -84.2306 161° South 412 474 35,400 677 Climbing Minneapolis Center
Mon 02:29:56 PM 43.5553 -84.1747 160° South 419 482 36,000 581 Climbing Minneapolis Center
Mon 02:30:58 PM 43.4211 -84.1092 160° South 425 489 36,600 524 Climbing Minneapolis Center
Mon 02:31:39 PM 43.3497 -84.0736 160° South 432 497 36,900 233 Climbing Cleveland Center
Mon 02:32:41 PM 43.2336 -84.0178 161° South 442 509 37,000 48 Climbing Cleveland Center
Mon 02:33:43 PM 43.0992 -83.9533 161° South 449 517 37,000  Level Cleveland Center
Mon 02:34:45 PM 42.9803 -83.8958 161° South 454 522 37,000  Level Cleveland Center
Mon 02:35:47 PM 42.8611 -83.8394 161° South 455 524 37,000  Level Cleveland Center
Mon 02:36:49 PM 42.7425 -83.7822 160° South 455 524 37,000  Level Cleveland Center
Mon 02:37:51 PM 42.6203 -83.7469 168° South 453 521 37,000  Level Cleveland Center
Mon 02:38:53 PM 42.4997 -83.7147 169° South 446 513 37,000  Level Cleveland Center
Mon 02:39:55 PM 42.3553 -83.6753 169° South 447 514 37,000  Level Cleveland Center
Mon 02:40:57 PM 42.2403 -83.6178 160° South 452 520 37,000  Level Cleveland Center
Mon 02:41:59 PM 42.1169 -83.5542 159° South 455 524 37,000  Level Cleveland Center
Mon 02:43:01 PM 41.9989 -83.4944 159° South 450 518 37,000  Level Cleveland Center
Mon 02:44:04 PM 41.8703 -83.4286 159° South 449 517 37,000  Level Cleveland Center
Mon 02:45:06 PM 41.7511 -83.3689 159° South 456 525 37,000  Level Cleveland Center
Mon 02:46:08 PM 41.6325 -83.3092 159° South 457 526 37,000  Level Cleveland Center
Mon 02:47:10 PM 41.5156 -83.2500 159° South 452 520 37,000  Level Cleveland Center
Mon 02:48:12 PM 41.3958 -83.1914 160° South 459 528 37,000  Level Cleveland Center
Mon 02:49:14 PM 41.2611 -83.1247 160° South 460 529 37,000  Level Cleveland Center
Mon 02:50:16 PM 41.1417 -83.0669 160° South 456 525 37,000  Level Cleveland Center
Mon 02:51:18 PM 41.0211 -83.0072 160° South 459 528 37,000  Level Cleveland Center
Mon 02:52:20 PM 40.8800 -82.9381 160° South 459 528 37,000  Level Cleveland Center
Mon 02:53:22 PM 40.7592 -82.8794 160° South 459 528 37,000  Level Cleveland Center
Mon 02:54:24 PM 40.6383 -82.8211 160° South 461 531 37,000  Level Cleveland Center
Mon 02:55:26 PM 40.5161 -82.7617 160° South 465 535 37,000  Level Cleveland Center
Mon 02:56:28 PM 40.3911 -82.7014 160° South 473 544 37,000  Level Cleveland Center
Mon 02:57:30 PM 40.2667 -82.6417 160° South 475 547 37,000  Level Cleveland Center
Mon 02:58:33 PM 40.1500 -82.5550 150° Southeast 488 562 37,000  Level Cleveland Center
Mon 02:59:35 PM 40.0539 -82.3842 126° Southeast 489 563 37,000  Level Cleveland Center
Mon 03:00:37 PM 39.9800 -82.2331 123° Southeast 491 565 37,000  Level Cleveland Center
Mon 03:01:39 PM 39.9072 -82.0811 122° Southeast 492 566 37,000  Level Cleveland Center
Mon 03:02:41 PM 39.8339 -81.9311 122° Southeast 491 565 37,000  Level Cleveland Center
Mon 03:03:43 PM 39.7600 -81.7803 122° Southeast 494 568 37,000 -242 Level Cleveland Center
Mon 03:04:45 PM 39.6808 -81.6192 123° Southeast 492 566 36,500 -774 Descending Cleveland Center
Mon 03:05:47 PM 39.6078 -81.4686 122° Southeast 494 568 35,400 -726 Descending Cleveland Center
Mon 03:06:49 PM 39.5347 -81.3211 123° Southeast 489 563 35,000 -1,065 Descending Cleveland Center
Mon 03:07:51 PM 39.4469 -81.1461 123° Southeast 488 562 33,200 -1,694 Descending Cleveland Center
Mon 03:08:53 PM 39.3744 -81.0008 123° Southeast 484 557 31,500 -1,645 Descending Cleveland Center
Mon 03:09:55 PM 39.3033 -80.8572 123° Southeast 479 551 29,800 -1,640 Descending Cleveland Center
Mon 03:11:12 PM 39.2131 -80.6856 124° Southeast 474 545 27,700 -1,209 Descending Indianapolis Center
Mon 03:12:14 PM 39.1408 -80.5422 123° Southeast 474 545 27,000 -339 Descending Indianapolis Center
Mon 03:13:16 PM 39.0683 -80.3975 123° Southeast 478 550 27,000 -629 Level Indianapolis Center
Mon 03:14:18 PM 38.9781 -80.2225 124° Southeast 486 559 25,700 -1,452 Descending Indianapolis Center
Mon 03:15:20 PM 38.9042 -80.0772 123° Southeast 489 563 24,000 -1,790 Descending Indianapolis Center
Mon 03:16:22 PM 38.8383 -79.9333 120° Southeast 468 539 22,000 -1,966 Descending Indianapolis Center
Mon 03:17:19 PM 38.7769 -79.8072 122° Southeast 467 537 20,100 -2,000 Descending Washington Center
Mon 03:18:19 PM 38.7169 -79.6733 120° Southeast 454 522 18,100 -1,916 Descending Washington Center
Mon 03:19:18 PM 38.6603 -79.5558 122° Southeast 438 504 16,300 -1,916 Descending Washington Center
Mon 03:20:18 PM 38.6019 -79.4306 121° Southeast 432 497 14,300 -1,983 Descending Washington Center
Mon 03:21:19 PM 38.5453 -79.3081 121° Southeast 416 479 12,300 -2,017 Descending Washington Center
Mon 03:22:17 PM 38.4886 -79.1886 121° Southeast 403 464 10,300 -1,210 Descending Washington Center
Mon 03:23:18 PM 38.4394 -79.0803 120° Southeast 353 406 9,900 -195 Descending Washington Center
Mon 03:24:20 PM 38.3964 -78.9881 121° Southeast 320 368 9,900 -879 Level Washington Center
Mon 03:25:55 PM 38.3167 -78.8333 123° Southeast 289 333 7,600 -1,490 Descending Potomac TRACON
Mon 03:26:49 PM 38.2833 -78.7667 122° Southeast 289 333 6,200 -1,368 Descending Potomac TRACON
Mon 03:27:49 PM 38.2333 -78.6833 127° Southeast 285 328 5,000 -700 Descending Potomac TRACON
Mon 03:28:49 PM 38.1833 -78.6167 134° Southeast 267 307 4,800 -600 Descending Potomac TRACON
Mon 03:29:49 PM 38.1333 -78.5667 142° Southeast 230 265 3,800 -1,134 Descending Potomac TRACON
Mon 03:30:56 PM 38.1000 -78.5167 130° Southeast 140 161 2,400 -1,181 Descending Potomac TRACON
Mon 03:31:56 PM 38.1000 -78.4667 90° East 124 143 1,300 -1,100 Descending Potomac TRACON
Mon 03:33:00 PM 38.1333 -78.4500 130° Southeast  Level FlightAware Approximate
Mon 03:40:00 PM 38.1396 -78.4523 130° Southeast  Level Estimated
Mon 03:41:00 PM 38.1333 -78.4500 130° Southeast  Level FlightAware Approximate

Login

Don't have an account? Register now (free) for customized features, flight alerts, and more!